Hadsten, Denmark
Current Conditions -  °F | °C
As of 10:20 PM on Friday 24 Oct 2014 (Local Time) from EKAH Reporting Station
Light Rain Light Rain  
Wind Chill: 54°   Ceiling: 2000
Heat Index: 54°   Visibility: 4mi
Dew Point: 50°   Wind: 8mph
Humidity: 88%   Direction: 180°S
Pressure: 29.97"   Gusts: NA
Location:  56.33°N, 10.05°E
Report Text: EKAH 242020Z AUTO 18007KT 120V240 7000NDV -RA OVC020///12/10 Q1015
Loading
Personal Weather Stations






























Interactive Weather Map
Tropical Storm Tracking
New forecast layout! Learn more

10-Day Weather Forecast

Advertisements
Track Severe Weather on mobile